createdAt,value
2018-09-23T00:00:48.877Z,97977.92
2018-09-23T00:03:18.999Z,97979.14
2018-09-23T00:05:48.691Z,97974.00
2018-09-23T00:08:18.469Z,97977.61
2018-09-23T00:10:48.246Z,97983.97
2018-09-23T00:13:18.037Z,98013.05
2018-09-23T00:15:47.804Z,98022.00
2018-09-23T00:18:17.558Z,98023.00
2018-09-23T00:20:47.477Z,98024.48
2018-09-23T00:23:17.386Z,98022.78
2018-09-23T00:25:47.221Z,98014.03
2018-09-23T00:28:17.105Z,98011.81
2018-09-23T00:30:46.851Z,98015.08
2018-09-23T00:33:16.752Z,98000.62
2018-09-23T00:35:46.416Z,98009.55
2018-09-23T00:38:16.280Z,98024.14
2018-09-23T00:40:46.161Z,98019.66
2018-09-23T00:43:16.058Z,98018.27
2018-09-23T00:45:45.724Z,98028.64
2018-09-23T00:48:15.584Z,98026.03
2018-09-23T00:50:45.323Z,98037.70
2018-09-23T00:53:15.167Z,98035.00
2018-09-23T00:55:44.892Z,98034.44
2018-09-23T00:58:14.631Z,98027.34
2018-09-23T01:00:44.419Z,98016.73
2018-09-23T01:03:14.274Z,98019.25
2018-09-23T01:05:44.053Z,98012.72
2018-09-23T01:08:16.110Z,98006.10
2018-09-23T01:10:45.861Z,97999.21
2018-09-23T01:13:16.670Z,97996.95
2018-09-23T01:15:46.427Z,97997.26
2018-09-23T01:18:16.989Z,97972.78
2018-09-23T01:20:47.207Z,98001.09
2018-09-23T01:23:17.967Z,97998.83
2018-09-23T01:25:47.815Z,97996.13
2018-09-23T01:28:19.228Z,97994.00
2018-09-23T01:30:49.188Z,97986.98
2018-09-23T01:33:20.623Z,97983.55
2018-09-23T01:35:50.470Z,97979.53
2018-09-23T01:38:21.945Z,97974.66
2018-09-23T01:40:51.793Z,97968.04
2018-09-23T01:43:21.486Z,97974.88
2018-09-23T01:45:51.852Z,97964.80
2018-09-23T01:48:21.650Z,97949.30
2018-09-23T01:50:51.550Z,97946.33
2018-09-23T01:53:21.349Z,97944.55
2018-09-23T01:55:51.304Z,97944.76
2018-09-23T01:58:21.325Z,97938.22
2018-09-23T02:00:51.258Z,97930.53
2018-09-23T02:03:21.160Z,97933.09
2018-09-23T02:05:50.999Z,97939.62
2018-09-23T02:08:20.737Z,97938.70
2018-09-23T02:10:50.485Z,97933.86
2018-09-23T02:13:20.825Z,97936.83
2018-09-23T02:15:50.901Z,97934.22
2018-09-23T02:18:20.785Z,97930.38
2018-09-23T02:20:51.266Z,97932.16
2018-09-23T02:23:21.048Z,97927.08
2018-09-23T02:25:51.766Z,97918.32
2018-09-23T02:28:21.619Z,97920.94
2018-09-23T02:30:51.437Z,97917.84
2018-09-23T02:33:21.238Z,97914.78
2018-09-23T02:35:51.252Z,97919.57
2018-09-23T02:38:21.090Z,97917.31
2018-09-23T02:40:50.919Z,97906.86
2018-09-23T02:43:20.847Z,97904.72
2018-09-23T02:45:51.380Z,97909.47
2018-09-23T02:48:21.285Z,97926.46
2018-09-23T02:50:51.088Z,97939.09
2018-09-23T02:53:20.873Z,97929.94
2018-09-23T02:55:50.688Z,97935.91
2018-09-23T02:58:20.511Z,97931.89
2018-09-23T03:00:50.474Z,97917.88
2018-09-23T03:03:20.190Z,97934.69
2018-09-23T03:05:50.125Z,97933.02
2018-09-23T03:08:20.344Z,97939.56
2018-09-23T03:10:50.834Z,97941.22
2018-09-23T03:13:20.511Z,97933.20
2018-09-23T03:15:50.642Z,97936.38
2018-09-23T03:18:20.418Z,97940.84
2018-09-23T03:20:50.420Z,97941.79
2018-09-23T03:23:20.180Z,97951.00
2018-09-23T03:25:49.957Z,97939.67
2018-09-23T03:28:19.693Z,97938.11
2018-09-23T03:30:49.499Z,97924.56
2018-09-23T03:33:19.299Z,97941.84
2018-09-23T03:35:49.412Z,97939.17
2018-09-23T03:38:19.225Z,97933.77
2018-09-23T03:40:51.383Z,97935.52
2018-09-23T03:43:21.136Z,97935.91
2018-09-23T03:45:50.976Z,97936.38
2018-09-23T03:48:21.091Z,97924.53
2018-09-23T03:50:51.097Z,97933.56
2018-09-23T03:53:20.864Z,97939.09
2018-09-23T03:55:51.214Z,97928.72
2018-09-23T03:58:21.001Z,97938.16
2018-09-23T04:00:50.819Z,97941.13
2018-09-23T04:03:20.612Z,97937.98
2018-09-23T04:05:50.452Z,97924.91
2018-09-23T04:08:20.889Z,97932.28
2018-09-23T04:10:50.824Z,97925.27
2018-09-23T04:13:20.706Z,97912.58
2018-09-23T04:15:50.359Z,97921.34
2018-09-23T04:18:20.362Z,97920.90
2018-09-23T04:20:50.300Z,97915.19
2018-09-23T04:23:20.021Z,97916.98
2018-09-23T04:25:49.739Z,97915.67
2018-09-23T04:28:19.549Z,97921.34
2018-09-23T04:30:49.747Z,97931.23
2018-09-23T04:33:20.207Z,97917.33
2018-09-23T04:35:51.385Z,97914.23
2018-09-23T04:41:14.545Z,97911.53
2018-09-23T04:43:55.558Z,97908.30
2018-09-23T04:46:47.645Z,97919.77
2018-09-23T05:02:31.318Z,97920.89
2018-09-23T05:05:01.638Z,97947.97
2018-09-23T05:07:31.796Z,97947.88
2018-09-23T05:10:14.905Z,97934.80
2018-09-23T05:19:02.858Z,97937.59
2018-09-23T05:21:33.500Z,97952.27
2018-09-23T06:10:04.284Z,97924.00
2018-09-23T06:12:35.204Z,97926.22
2018-09-23T06:15:05.863Z,97924.59
2018-09-23T06:17:35.856Z,97921.88
2018-09-23T06:20:06.643Z,97923.97
2018-09-23T06:22:36.864Z,97929.75
2018-09-23T06:25:07.429Z,97935.14
2018-09-23T06:27:40.484Z,97933.81
2018-09-23T06:30:17.421Z,97938.23
2018-09-23T06:32:53.200Z,97940.25
2018-09-23T06:35:29.618Z,97945.34
2018-09-23T06:40:42.262Z,97963.90
2018-09-23T06:43:12.597Z,97959.52
2018-09-23T06:45:43.309Z,97944.55
2018-09-23T06:48:13.666Z,97936.99
2018-09-23T06:50:44.118Z,97936.45
2018-09-23T06:53:14.240Z,97936.72
2018-09-23T06:55:44.358Z,97941.38
2018-09-23T06:58:15.727Z,97939.03
2018-09-23T07:00:46.317Z,97946.21
2018-09-23T07:03:16.904Z,97920.77
2018-09-23T07:05:47.765Z,97933.72
2018-09-23T07:11:21.463Z,97931.47
2018-09-23T07:14:09.263Z,97941.89
2018-09-23T07:16:39.711Z,97936.50
2018-09-23T07:19:10.503Z,97935.21
2018-09-23T07:30:54.619Z,97929.06
2018-09-23T07:33:55.832Z,97926.61
2018-09-23T07:36:38.683Z,97929.05
2018-09-23T07:39:11.645Z,97915.73
2018-09-23T07:41:58.723Z,97902.12
2018-09-23T07:44:30.389Z,97913.41
2018-09-23T07:47:01.433Z,97913.84
2018-09-23T07:55:13.200Z,97917.39
2018-09-23T07:57:43.365Z,97903.61
2018-09-23T08:00:13.495Z,97911.70
2018-09-23T08:02:43.876Z,97907.54
2018-09-23T08:05:13.924Z,97917.61
2018-09-23T08:07:45.447Z,97894.44
2018-09-23T08:10:15.656Z,97896.22
2018-09-23T08:12:46.584Z,97906.61
2018-09-23T08:15:16.676Z,97903.06
2018-09-23T08:17:47.078Z,97906.54
2018-09-23T08:20:18.053Z,97922.09
2018-09-23T08:22:48.511Z,97913.81
2018-09-23T08:25:18.845Z,97909.63
2018-09-23T08:27:48.897Z,97904.44
2018-09-23T08:30:19.156Z,97897.98
2018-09-23T08:32:50.127Z,97893.19
2018-09-23T08:35:20.357Z,97894.52
2018-09-23T08:37:50.737Z,97885.20
2018-09-23T08:40:20.979Z,97875.98
2018-09-23T08:42:51.338Z,97891.83
2018-09-23T08:45:22.181Z,97897.70
2018-09-23T08:47:53.049Z,97892.29
2018-09-23T08:50:26.597Z,97889.52
2018-09-23T08:52:57.455Z,97880.94
2018-09-23T08:55:27.905Z,97891.09
2018-09-23T08:58:04.975Z,97881.81
2018-09-23T09:00:36.986Z,97887.45
2018-09-23T09:03:10.364Z,97886.71
2018-09-23T09:05:48.216Z,97883.80
2018-09-23T09:08:18.743Z,97872.27
2018-09-23T09:10:51.244Z,97879.63
2018-09-23T09:13:21.981Z,97880.99
2018-09-23T09:15:54.437Z,97883.52
2018-09-23T09:18:28.421Z,97869.47
2018-09-23T09:21:01.096Z,97874.68
2018-09-23T09:23:31.560Z,97866.84
2018-09-23T09:26:03.056Z,97862.48
2018-09-23T09:28:37.676Z,97855.36
2018-09-23T09:31:08.985Z,97856.35
2018-09-23T09:33:41.232Z,97858.00
2018-09-23T09:36:11.904Z,97862.58
2018-09-23T09:38:48.206Z,97867.82
2018-09-23T09:41:21.807Z,97854.61
2018-09-23T09:43:52.418Z,97855.34
2018-09-23T09:46:27.263Z,97857.76
2018-09-23T09:49:03.534Z,97864.39
2018-09-23T09:51:35.024Z,97867.94
2018-09-23T09:56:50.888Z,97860.63
2018-09-23T09:59:23.605Z,97851.00
2018-09-23T10:01:53.884Z,97847.08
2018-09-23T10:04:24.167Z,97832.85
2018-09-23T10:06:54.583Z,97829.06
2018-09-23T10:09:24.993Z,97821.95
2018-09-23T10:11:55.274Z,97814.08
2018-09-23T10:14:26.328Z,97804.42
2018-09-23T10:30:45.296Z,97787.64
2018-09-23T10:33:16.129Z,97790.84
2018-09-23T10:35:46.264Z,97783.25
2018-09-23T10:38:17.826Z,97772.35
2018-09-23T10:40:50.444Z,97781.34
2018-09-23T10:43:22.011Z,97781.49
2018-09-23T10:45:53.598Z,97778.82
2018-09-23T10:48:24.151Z,97776.28
2018-09-23T10:50:54.391Z,97775.05
2018-09-23T10:53:24.931Z,97764.88
2018-09-23T10:55:55.240Z,97760.55
2018-09-23T10:58:26.178Z,97754.66
2018-09-23T11:00:57.407Z,97753.60
2018-09-23T11:03:27.700Z,97759.25
2018-09-23T11:05:59.302Z,97766.44
2018-09-23T11:08:30.253Z,97772.27
2018-09-23T11:11:00.506Z,97758.08
2018-09-23T11:13:31.145Z,97748.40
2018-09-23T11:16:05.200Z,97740.90
2018-09-23T11:18:35.833Z,97736.55
2018-09-23T11:21:06.232Z,97725.84
2018-09-23T11:23:36.817Z,97722.83
2018-09-23T11:26:07.111Z,97717.06
2018-09-23T11:28:37.517Z,97706.69
2018-09-23T11:31:07.900Z,97704.26
2018-09-23T11:33:38.184Z,97709.84
2018-09-23T11:36:08.435Z,97706.69
2018-09-23T11:38:39.556Z,97690.87
2018-09-23T11:41:09.874Z,97690.48
2018-09-23T11:43:41.222Z,97676.30
2018-09-23T11:46:12.105Z,97655.94
2018-09-23T11:48:44.634Z,97654.54
2018-09-23T11:51:15.454Z,97651.57
2018-09-23T11:53:46.063Z,97636.30
2018-09-23T11:56:19.835Z,97632.75
2018-09-23T11:58:58.075Z,97621.83
2018-09-23T12:01:30.669Z,97607.19
2018-09-23T12:04:00.682Z,97607.50
2018-09-23T12:06:31.955Z,97609.69
2018-09-23T12:09:01.971Z,97604.27
2018-09-23T12:11:33.145Z,97603.45
2018-09-23T12:14:03.097Z,97593.16
2018-09-23T12:16:36.680Z,97584.80
2018-09-23T12:19:06.641Z,97589.13
2018-09-23T12:21:37.021Z,97586.56
2018-09-23T12:24:06.924Z,97581.77
2018-09-23T12:26:38.049Z,97577.66
2018-09-23T12:29:08.060Z,97572.48
2018-09-23T12:31:39.366Z,97564.08
2018-09-23T12:34:09.394Z,97559.73
2018-09-23T12:36:40.821Z,97564.69
2018-09-23T12:39:12.661Z,97558.64
2018-09-23T12:41:43.563Z,97558.30
2018-09-23T12:44:13.334Z,97545.21
2018-09-23T12:46:45.940Z,97542.05
2018-09-23T12:49:15.725Z,97537.56
2018-09-23T12:51:46.717Z,97536.80
2018-09-23T12:54:17.160Z,97530.77
2018-09-23T12:56:47.979Z,97522.84
2018-09-23T12:59:18.263Z,97520.06
2018-09-23T13:01:49.025Z,97511.61
2018-09-23T13:04:19.033Z,97509.83
2018-09-23T13:06:49.268Z,97514.14
2018-09-23T13:09:26.450Z,97505.02
2018-09-23T13:11:56.474Z,97502.36
2018-09-23T13:14:26.424Z,97494.23
2018-09-23T13:16:56.497Z,97480.28
2018-09-23T13:19:26.380Z,97476.13
2018-09-23T13:21:57.378Z,97471.63
2018-09-23T13:24:27.358Z,97465.81
2018-09-23T13:26:58.449Z,97464.98
2018-09-23T13:29:28.603Z,97464.00
2018-09-23T13:32:00.239Z,97459.88
2018-09-23T13:34:30.095Z,97453.22
2018-09-23T13:37:01.509Z,97457.84
2018-09-23T13:39:31.369Z,97440.25
2018-09-23T13:42:03.810Z,97437.77
2018-09-23T13:44:33.627Z,97440.41
2018-09-23T13:47:04.415Z,97437.59
2018-09-23T13:49:34.350Z,97430.30
2018-09-23T13:52:04.838Z,97429.12
2018-09-23T13:54:34.842Z,97416.36
2018-09-23T13:57:06.245Z,97426.67
2018-09-23T13:59:36.287Z,97419.20
2018-09-23T14:02:07.556Z,97417.19
2018-09-23T14:04:37.294Z,97419.14
2018-09-23T14:07:07.505Z,97415.52
2018-09-23T14:09:37.452Z,97412.16
2018-09-23T14:12:07.035Z,97412.03
2018-09-23T14:14:37.174Z,97409.72
2018-09-23T14:17:07.121Z,97399.59
2018-09-23T14:19:37.458Z,97389.12
2018-09-23T14:22:07.309Z,97379.32
2018-09-23T14:24:37.534Z,97380.48
2018-09-23T14:27:07.382Z,97379.84
2018-09-23T14:29:37.353Z,97386.63
2018-09-23T14:32:07.234Z,97375.70
2018-09-23T14:34:37.312Z,97371.56
2018-09-23T14:37:07.402Z,97385.47
2018-09-23T14:39:37.520Z,97375.22
2018-09-23T14:42:07.563Z,97368.42
2018-09-23T14:44:37.769Z,97367.59
2018-09-23T14:47:07.759Z,97358.95
2018-09-23T14:49:37.679Z,97358.45
2018-09-23T14:52:07.553Z,97352.81
2018-09-23T14:54:37.573Z,97339.03
2018-09-23T14:57:07.416Z,97328.54
2018-09-23T14:59:37.386Z,97325.03
2018-09-23T15:02:07.259Z,97323.38
2018-09-23T15:04:37.198Z,97321.00
2018-09-23T15:07:07.176Z,97323.45
2018-09-23T15:09:37.452Z,97315.85
2018-09-23T15:12:07.562Z,97301.71
2018-09-23T15:14:37.429Z,97299.06
2018-09-23T15:17:07.405Z,97292.24
2018-09-23T15:19:37.416Z,97289.83
2018-09-23T15:22:07.550Z,97276.94
2018-09-23T15:24:37.645Z,97270.67
2018-09-23T15:27:07.608Z,97268.70
2018-09-23T15:29:37.507Z,97258.25
2018-09-23T15:32:07.723Z,97254.23
2018-09-23T15:34:37.841Z,97245.86
2018-09-23T15:37:07.782Z,97237.20
2018-09-23T15:39:37.651Z,97238.58
2018-09-23T15:42:07.464Z,97232.73
2018-09-23T15:44:37.762Z,97219.00
2018-09-23T15:47:08.239Z,97214.99
2018-09-23T15:49:38.955Z,97214.70
2018-09-23T15:52:08.973Z,97216.73
2018-09-23T15:54:38.927Z,97212.34
2018-09-23T15:57:08.975Z,97208.38
2018-09-23T15:59:38.856Z,97204.89
2018-09-23T16:02:08.933Z,97204.73
2018-09-23T16:04:38.804Z,97206.69
2018-09-23T16:07:08.812Z,97204.03
2018-09-23T16:09:38.763Z,97214.38
2018-09-23T16:12:08.645Z,97204.27
2018-09-23T16:14:38.688Z,97193.12
2018-09-23T16:17:08.669Z,97199.55
2018-09-23T16:19:38.524Z,97203.17
2018-09-23T16:22:08.207Z,97206.28
2018-09-23T16:24:38.179Z,97201.91
2018-09-23T16:27:08.039Z,97193.75
2018-09-23T16:29:38.008Z,97184.39
2018-09-23T16:32:07.858Z,97194.35
2018-09-23T16:34:37.927Z,97199.84
2018-09-23T16:37:07.778Z,97189.31
2018-09-23T16:39:37.846Z,97173.39
2018-09-23T16:42:07.689Z,97171.27
2018-09-23T16:44:37.812Z,97174.13
2018-09-23T16:47:07.798Z,97171.81
2018-09-23T16:49:37.608Z,97167.05
2018-09-23T16:52:07.537Z,97160.14
2018-09-23T16:54:37.718Z,97153.88
2018-09-23T16:57:07.563Z,97139.33
2018-09-23T16:59:37.619Z,97133.43
2018-09-23T17:02:07.543Z,97126.00
2018-09-23T17:04:37.364Z,97127.66
2018-09-23T17:07:07.462Z,97117.94
2018-09-23T17:09:37.495Z,97112.67
2018-09-23T17:12:07.265Z,97100.06
2018-09-23T17:14:37.054Z,97090.13
2018-09-23T17:17:07.187Z,97108.84
2018-09-23T17:19:38.039Z,97092.88
2018-09-23T17:22:09.053Z,97103.71
2018-09-23T17:24:39.576Z,97095.61
2018-09-23T17:27:11.906Z,97100.55
2018-09-23T17:29:48.673Z,97104.01
2018-09-23T17:32:22.125Z,97085.27
2018-09-23T17:34:52.465Z,97068.02
2018-09-23T17:49:17.934Z,97038.89
2018-09-23T17:51:47.926Z,97037.64
2018-09-23T17:54:18.605Z,97024.12
2018-09-23T17:56:49.553Z,97035.27
2018-09-23T17:59:19.976Z,97030.42
2018-09-23T18:01:50.703Z,97034.17
2018-09-23T18:04:21.815Z,97043.77
2018-09-23T18:06:55.450Z,97044.80
2018-09-23T18:09:40.975Z,97049.63
2018-09-23T18:12:35.153Z,97034.30
2018-09-23T18:15:13.134Z,97043.80
2018-09-23T18:17:43.092Z,97029.31
2018-09-23T18:20:13.492Z,97026.95
2018-09-23T18:22:47.724Z,97014.22
2018-09-23T18:25:17.924Z,97018.42
2018-09-23T18:27:48.265Z,97019.67
2018-09-23T18:30:18.695Z,97010.38
2018-09-23T18:33:11.646Z,97023.27
2018-09-23T18:35:42.227Z,97023.47
2018-09-23T18:41:05.143Z,97005.73
2018-09-23T18:43:35.218Z,97007.61
2018-09-23T18:46:06.606Z,97005.61
2018-09-23T18:48:37.220Z,96994.94
2018-09-23T18:51:07.330Z,96995.11
2018-09-23T18:53:38.366Z,96983.98
2018-09-23T18:56:08.968Z,96986.34
2018-09-23T19:14:36.142Z,96964.45
2018-09-23T19:17:06.578Z,96924.09
2018-09-23T19:19:41.657Z,96925.20
2018-09-23T19:22:18.481Z,96917.59
2018-09-23T19:24:49.202Z,96909.53
2018-09-23T19:27:19.427Z,96901.16
2018-09-23T19:29:49.626Z,96903.80
2018-09-23T19:32:24.182Z,96890.36
2018-09-23T19:34:54.419Z,96889.36
2018-09-23T19:37:39.827Z,96898.43
2018-09-23T19:40:10.156Z,96898.13
2018-09-23T19:42:48.265Z,96884.08
2018-09-23T19:45:18.660Z,96873.01
2018-09-23T19:47:48.702Z,96867.41
2018-09-23T19:50:18.788Z,96861.11
2018-09-23T19:52:54.034Z,96862.28
2018-09-23T19:55:24.688Z,96844.75
2018-09-23T20:00:45.306Z,96831.75
2018-09-23T20:03:15.106Z,96826.02
2018-09-23T20:05:45.017Z,96823.49
2018-09-23T20:08:14.968Z,96818.31
2018-09-23T20:10:45.866Z,96825.80
2018-09-23T20:13:15.872Z,96824.65
2018-09-23T20:15:46.060Z,96820.88
2018-09-23T20:18:15.900Z,96807.92
2018-09-23T20:20:45.837Z,96801.38
2018-09-23T20:23:15.701Z,96792.84
2018-09-23T20:25:45.580Z,96796.59
2018-09-23T20:28:15.604Z,96809.06
2018-09-23T20:30:45.856Z,96805.50
2018-09-23T20:33:15.671Z,96814.89
2018-09-23T20:35:45.627Z,96804.81
2018-09-23T20:38:15.296Z,96807.37
2018-09-23T20:40:45.323Z,96801.23
2018-09-23T20:43:15.083Z,96785.42
2018-09-23T20:45:45.382Z,96780.44
2018-09-23T20:48:15.302Z,96769.97
2018-09-23T20:50:45.615Z,96767.75
2018-09-23T20:53:16.211Z,96765.87
2018-09-23T20:55:46.579Z,96756.72
2018-09-23T20:58:16.542Z,96751.98
2018-09-23T21:00:46.597Z,96745.08
2018-09-23T21:03:16.463Z,96745.49
2018-09-23T21:05:46.479Z,96739.90
2018-09-23T21:08:16.272Z,96748.69
2018-09-23T21:10:46.341Z,96752.34
2018-09-23T21:13:16.365Z,96757.30
2018-09-23T21:15:46.330Z,96760.44
2018-09-23T21:18:16.228Z,96747.58
2018-09-23T21:20:46.269Z,96751.22
2018-09-23T21:23:16.062Z,96753.55
2018-09-23T21:25:46.097Z,96754.25
2018-09-23T21:28:16.494Z,96752.78
2018-09-23T21:30:46.308Z,96747.67
2018-09-23T21:33:16.153Z,96749.81
2018-09-23T21:35:46.118Z,96753.13
2018-09-23T21:38:16.023Z,96752.98
2018-09-23T21:40:46.064Z,96754.48
2018-09-23T21:43:16.037Z,96748.37
2018-09-23T21:45:45.997Z,96738.77
2018-09-23T21:48:15.883Z,96729.98
2018-09-23T21:50:46.036Z,96728.16
2018-09-23T21:53:15.924Z,96706.20
2018-09-23T21:55:45.837Z,96700.59
2018-09-23T21:58:16.494Z,96687.70
2018-09-23T22:00:47.019Z,96681.28
2018-09-23T22:03:16.760Z,96670.41
2018-09-23T22:05:46.580Z,96644.12
2018-09-23T22:08:16.305Z,96607.50
2018-09-23T22:10:46.118Z,96557.29
2018-09-23T22:13:16.048Z,96594.91
2018-09-23T22:15:45.898Z,96598.95
2018-09-23T22:18:15.688Z,96623.89
2018-09-23T22:20:45.668Z,96620.55
2018-09-23T22:23:15.549Z,96636.30
2018-09-23T22:25:45.500Z,96640.11
2018-09-23T22:28:15.297Z,96648.09
2018-09-23T22:30:45.216Z,96639.52
2018-09-23T22:33:15.343Z,96630.25
2018-09-23T22:35:45.181Z,96639.19
2018-09-23T22:38:14.959Z,96655.58
2018-09-23T22:40:44.781Z,96656.56
2018-09-23T22:43:14.736Z,96653.06
2018-09-23T22:45:44.750Z,96667.83
2018-09-23T22:48:14.585Z,96658.73
2018-09-23T22:50:44.810Z,96680.42
2018-09-23T22:53:14.567Z,96687.38
2018-09-23T22:55:44.515Z,96700.00
2018-09-23T22:58:14.322Z,96715.52
2018-09-23T23:00:44.095Z,96720.66
2018-09-23T23:03:14.992Z,96733.72
2018-09-23T23:05:44.904Z,96740.36
2018-09-23T23:08:14.938Z,96748.48
2018-09-23T23:10:45.024Z,96761.23
2018-09-23T23:13:15.091Z,96774.95
2018-09-23T23:15:45.012Z,96788.03
2018-09-23T23:18:14.910Z,96778.28
2018-09-23T23:20:46.042Z,96801.06
2018-09-23T23:23:16.236Z,96818.17
2018-09-23T23:25:47.229Z,96832.95
2018-09-23T23:28:17.128Z,96849.39
2018-09-23T23:30:47.918Z,96867.13
2018-09-23T23:33:17.614Z,96877.80
2018-09-23T23:35:48.682Z,96895.20
2018-09-23T23:38:18.472Z,96896.84
2018-09-23T23:40:49.341Z,96910.11
2018-09-23T23:43:19.418Z,96915.00
2018-09-23T23:45:50.440Z,96927.31
2018-09-23T23:48:20.372Z,96930.75
2018-09-23T23:50:51.835Z,96936.99
2018-09-23T23:53:21.814Z,96935.97
2018-09-23T23:55:53.771Z,96930.03
2018-09-23T23:58:23.717Z,96947.16
